Time;durP1;ratioP1;P1;durP2;ratioP2;P2;SDS_P1;SDS_P2;PMS_P1;PMS_P2;Temp;Humidity;BMP_temperature;BMP_pressure;BME280_temperature;BME280_humidity;BME280_pressure;Samples;Min_cycle;Max_cycle;Signal;HPM_P1;HPM_P2
2022/10/27 10:43:34;;;;;;;5.53;1.63;;;18.30;99.90;;;;;;4917734;29;20091;-87
2022/10/27 10:46:27;;;;;;;3.00;1.00;;;18.40;99.90;;;;;;4915145;29;20054;-88
2022/10/27 10:49:36;;;;;;;4.90;1.20;;;18.50;99.90;;;;;;4898624;29;20154;-88
2022/10/27 10:53:02;;;;;;;3.03;0.90;;;18.50;99.90;;;;;;4915702;29;20059;-87
2022/10/27 10:56:33;;;;;;;5.30;1.35;;;18.70;99.90;;;;;;4910471;29;20074;-87
2022/10/27 11:03:56;;;;;;;7.55;0.90;;;19.00;99.90;;;;;;4890836;29;20138;-88
2022/10/27 11:21:28;;;;;;;2.05;0.95;;;19.80;99.90;;;;;;4895694;29;20127;-85
2022/10/27 11:24:22;;;;;;;4.90;1.05;;;19.70;99.90;;;;;;4872157;29;20842;-86
2022/10/27 11:27:49;;;;;;;3.75;0.82;;;19.50;99.90;;;;;;4888517;29;20056;-86
2022/10/27 11:31:28;;;;;;;10.15;1.35;;;19.40;99.90;;;;;;4886163;29;20064;-86
2022/10/27 11:35:15;;;;;;;6.10;0.90;;;19.30;99.90;;;;;;4850061;29;20064;-88
2022/10/27 12:06:13;;;;;;;3.55;0.90;;;19.00;99.90;;;;;;4736324;30;20063;-88
2022/10/27 12:56:04;;;;;;;4.78;0.60;;;19.40;99.90;;;;;;4717040;30;20047;-88
2022/10/27 12:59:54;;;;;;;4.07;1.00;;;19.50;99.90;;;;;;4711505;30;20155;-90
2022/10/27 13:03:25;;;;;;;8.00;1.00;;;19.50;99.90;;;;;;4725127;29;20062;-87
2022/10/27 13:40:12;;;;;;;5.03;1.17;;;19.80;99.90;;;;;;4919033;29;20070;-87
2022/10/27 13:43:45;;;;;;;3.22;1.13;;;19.80;99.90;;;;;;4843137;29;20182;-88
2022/10/27 14:02:07;;;;;;;7.93;1.13;;;19.30;99.90;;;;;;4754143;30;20078;-88
2022/10/27 14:05:38;;;;;;;4.20;0.52;;;19.10;99.90;;;;;;4745035;29;20108;-86
2022/10/27 14:09:12;;;;;;;3.20;0.80;;;18.90;99.90;;;;;;4800091;29;20053;-87
2022/10/27 14:16:24;;;;;;;5.68;0.45;;;18.60;99.90;;;;;;4925744;29;20070;-87
2022/10/27 14:22:47;;;;;;;1.48;0.47;;;18.30;99.90;;;;;;4895076;29;20134;-86
2022/10/27 14:33:21;;;;;;;3.63;1.00;;;18.10;99.90;;;;;;4917728;29;20131;-89
2022/10/27 14:39:35;;;;;;;3.85;0.80;;;17.90;99.90;;;;;;4912481;29;20054;-86
2022/10/27 14:42:44;;;;;;;8.18;1.90;;;17.90;99.90;;;;;;4899270;29;20050;-86
2022/10/27 14:53:00;;;;;;;3.75;1.30;;;17.80;99.90;;;;;;4926053;29;20158;-91
2022/10/27 14:56:26;;;;;;;5.30;1.00;;;17.70;99.90;;;;;;4900494;29;20115;-87
2022/10/27 15:33:22;;;;;;;5.35;1.10;;;17.80;99.90;;;;;;4748796;30;20114;-88
2022/10/27 15:44:54;;;;;;;3.78;0.88;;;17.80;99.90;;;;;;4890969;29;21121;-88
2022/10/27 15:48:28;;;;;;;2.92;0.98;;;17.70;99.90;;;;;;4895755;29;20055;-88
2022/10/27 16:13:37;;;;;;;8.85;1.45;;;17.40;99.90;;;;;;4913431;29;20130;-85
2022/10/27 16:16:18;;;;;;;7.03;1.33;;;17.30;99.90;;;;;;4880209;29;20171;-88
2022/10/27 16:19:25;;;;;;;7.85;1.85;;;17.30;99.90;;;;;;4911479;29;20070;-88
2022/10/27 16:22:35;;;;;;;3.10;1.13;;;17.30;99.90;;;;;;4898659;29;20043;-87
2022/10/27 16:25:04;;;;;;;2.85;1.02;;;17.80;99.90;;;;;;4897732;29;20123;-87
2022/10/27 16:27:42;;;;;;;6.50;1.33;;;17.30;99.90;;;;;;4878025;29;20039;-88
2022/10/27 16:30:22;;;;;;;3.78;1.25;;;17.30;99.90;;;;;;4884281;29;20051;-86
2022/10/27 16:37:11;;;;;;;3.25;1.02;;;17.10;99.90;;;;;;4919604;29;20038;-89
2022/10/27 16:40:21;;;;;;;5.80;1.30;;;17.20;99.90;;;;;;4897092;29;20604;-88
2022/10/27 16:47:24;;;;;;;6.25;1.50;;;17.10;99.90;;;;;;4890724;29;20031;-86
2022/10/27 16:50:53;;;;;;;4.75;1.20;;;17.10;99.90;;;;;;4854503;29;20052;-87
2022/10/27 17:08:40;;;;;;;12.27;1.55;;;17.00;99.90;;;;;;4883704;29;20514;-87
2022/10/27 17:11:47;;;;;;;9.85;1.85;;;17.00;99.90;;;;;;4833279;29;20060;-86
2022/10/27 17:14:14;;;;;;;9.68;1.45;;;17.40;99.90;;;;;;4821671;29;20048;-86
2022/10/27 17:16:39;;;;;;;5.65;1.50;;;17.00;99.90;;;;;;4863847;29;20063;-86
2022/10/27 17:19:06;;;;;;;6.50;2.30;;;17.10;99.90;;;;;;4887041;29;20043;-84
2022/10/27 17:21:35;;;;;;;6.20;1.40;;;17.00;99.90;;;;;;4893905;29;20032;-86
2022/10/27 17:24:02;;;;;;;7.13;1.50;;;17.00;99.90;;;;;;4892995;29;20047;-85
2022/10/27 17:26:31;;;;;;;4.45;1.48;;;17.00;99.90;;;;;;4888441;29;20040;-86
2022/10/27 17:28:57;;;;;;;7.30;1.70;;;17.00;99.90;;;;;;4891091;29;20688;-86
2022/10/27 17:31:26;;;;;;;5.28;1.35;;;16.90;99.90;;;;;;4892024;29;20160;-86
2022/10/27 17:33:58;;;;;;;9.48;1.90;;;16.90;99.90;;;;;;4879065;29;20047;-85
2022/10/27 17:36:25;;;;;;;8.50;1.58;;;16.60;99.90;;;;;;4893235;29;20044;-85
2022/10/27 17:38:51;;;;;;;8.70;1.48;;;16.80;99.90;;;;;;4909950;29;20494;-85
2022/10/27 17:41:16;;;;;;;9.40;1.75;;;16.80;99.90;;;;;;4891790;29;20071;-86
2022/10/27 17:43:42;;;;;;;5.22;1.80;;;17.20;99.90;;;;;;4907683;29;20043;-85
2022/10/27 17:46:12;;;;;;;11.57;1.73;;;16.80;99.90;;;;;;4873978;29;20043;-86
2022/10/27 17:48:44;;;;;;;18.00;2.15;;;16.60;99.90;;;;;;4917726;29;20036;-88
2022/10/27 17:51:14;;;;;;;9.75;1.70;;;16.50;99.90;;;;;;4899308;29;20165;-88
2022/10/27 17:53:41;;;;;;;5.78;1.77;;;16.40;99.90;;;;;;4899462;29;20063;-87
2022/10/27 17:56:29;;;;;;;5.57;1.70;;;16.30;99.90;;;;;;4893764;29;20103;-87
2022/10/27 17:58:57;;;;;;;5.15;1.77;;;16.30;99.90;;;;;;4910566;29;20143;-85
2022/10/27 18:01:40;;;;;;;6.78;1.75;;;16.60;99.90;;;;;;4909365;29;20684;-87
2022/10/27 18:04:09;;;;;;;12.82;1.70;;;16.30;99.90;;;;;;4908905;29;20039;-84
2022/10/27 18:06:38;;;;;;;6.82;1.98;;;16.30;99.90;;;;;;4894265;29;20047;-84
2022/10/27 18:09:05;;;;;;;12.15;1.90;;;16.30;99.90;;;;;;4891206;29;20050;-84
2022/10/27 18:11:33;;;;;;;11.93;2.42;;;16.30;99.90;;;;;;4890370;29;20048;-84
2022/10/27 18:14:04;;;;;;;7.07;2.13;;;16.30;99.90;;;;;;4887371;29;20048;-84
2022/10/27 18:16:33;;;;;;;6.63;2.00;;;16.30;99.90;;;;;;4875789;29;20039;-85
2022/10/27 18:19:13;;;;;;;4.95;2.40;;;16.30;99.90;;;;;;4873517;29;21743;-87
2022/10/27 18:22:00;;;;;;;12.27;3.00;;;16.40;99.90;;;;;;4876166;29;20071;-85
2022/10/27 18:24:29;;;;;;;5.18;1.88;;;16.40;99.90;;;;;;4897621;29;20982;-86
2022/10/27 18:27:11;;;;;;;7.05;2.15;;;16.40;99.90;;;;;;4908681;29;20143;-87
2022/10/27 18:29:37;;;;;;;5.95;2.30;;;16.30;99.90;;;;;;4894601;29;20062;-86
2022/10/27 18:32:03;;;;;;;9.55;3.17;;;16.60;99.90;;;;;;4900825;29;20061;-86
2022/10/27 18:34:29;;;;;;;11.43;2.13;;;16.40;99.90;;;;;;4877574;29;20043;-86
2022/10/27 18:36:55;;;;;;;6.88;2.05;;;16.40;99.90;;;;;;4873874;29;20234;-86
2022/10/27 18:39:23;;;;;;;8.98;2.80;;;16.50;99.90;;;;;;4861184;29;20043;-86
2022/10/27 18:41:51;;;;;;;11.35;2.50;;;16.50;99.90;;;;;;4858466;29;20052;-85
2022/10/27 18:44:18;;;;;;;10.63;2.70;;;16.50;99.90;;;;;;4875155;29;20430;-85
2022/10/27 18:46:44;;;;;;;8.23;2.85;;;16.40;99.90;;;;;;4874536;29;20051;-85
2022/10/27 18:49:11;;;;;;;7.03;2.17;;;16.50;99.90;;;;;;4875954;29;20055;-85
2022/10/27 18:51:37;;;;;;;12.88;3.08;;;16.50;99.90;;;;;;4901289;29;20047;-85
2022/10/27 18:54:06;;;;;;;11.70;2.63;;;16.50;99.90;;;;;;4907427;29;20050;-85
2022/10/27 18:56:32;;;;;;;8.85;3.10;;;16.50;99.90;;;;;;4887890;29;20130;-86
2022/10/27 18:59:06;;;;;;;9.88;2.90;;;16.50;99.90;;;;;;4906246;29;20067;-85
2022/10/27 19:01:33;;;;;;;7.88;2.90;;;16.50;99.90;;;;;;4901773;29;20071;-86
2022/10/27 19:04:01;;;;;;;7.07;2.97;;;16.40;99.90;;;;;;4903827;29;20047;-86
2022/10/27 19:06:30;;;;;;;16.33;3.05;;;16.60;99.90;;;;;;4889826;29;20063;-87
2022/10/27 19:08:59;;;;;;;9.45;3.33;;;16.50;99.90;;;;;;4889662;29;20047;-86
2022/10/27 19:11:25;;;;;;;7.50;2.63;;;16.50;99.90;;;;;;4902449;29;20044;-86
2022/10/27 19:13:50;;;;;;;9.65;3.20;;;16.40;99.90;;;;;;4905253;29;20143;-86
2022/10/27 19:16:18;;;;;;;17.42;2.80;;;16.40;99.90;;;;;;4888405;29;20043;-86
2022/10/27 19:18:45;;;;;;;12.65;3.67;;;16.30;99.90;;;;;;4904249;29;20073;-85
2022/10/27 19:21:15;;;;;;;9.98;3.28;;;16.20;99.90;;;;;;4904970;29;20047;-86
2022/10/27 19:23:42;;;;;;;13.50;3.42;;;16.30;99.90;;;;;;4899174;29;20537;-85
2022/10/27 19:26:09;;;;;;;16.17;3.25;;;16.20;99.90;;;;;;4899473;29;20051;-85
2022/10/27 19:28:37;;;;;;;15.07;3.28;;;16.10;99.90;;;;;;4920544;29;20048;-86
2022/10/27 19:31:03;;;;;;;8.55;3.65;;;16.10;99.90;;;;;;4906359;29;20042;-85
2022/10/27 19:33:29;;;;;;;9.88;3.75;;;16.10;99.90;;;;;;4906035;29;20102;-85
2022/10/27 19:35:55;;;;;;;8.05;3.00;;;16.10;99.90;;;;;;4895814;29;20582;-86
2022/10/27 19:38:23;;;;;;;8.25;3.47;;;16.10;99.90;;;;;;4897170;29;20036;-84
2022/10/27 19:40:49;;;;;;;10.20;3.20;;;16.10;99.90;;;;;;4888375;29;20150;-86
2022/10/27 19:43:15;;;;;;;11.80;3.72;;;16.10;99.90;;;;;;4895753;29;20044;-86
2022/10/27 19:45:47;;;;;;;9.68;3.67;;;16.10;99.90;;;;;;4907184;29;21921;-86
2022/10/27 19:48:13;;;;;;;10.57;3.58;;;16.10;99.90;;;;;;4908692;29;20051;-86
2022/10/27 19:50:39;;;;;;;14.88;4.25;;;16.10;99.90;;;;;;4889117;29;20059;-85
2022/10/27 19:53:05;;;;;;;8.88;3.42;;;16.10;99.90;;;;;;4907849;29;20384;-85
2022/10/27 19:55:33;;;;;;;8.15;4.15;;;16.00;99.90;;;;;;4905252;29;20051;-86
2022/10/27 19:57:59;;;;;;;6.47;3.35;;;15.90;99.90;;;;;;4891008;29;20453;-85
2022/10/27 20:00:25;;;;;;;7.05;3.47;;;15.80;99.90;;;;;;4901768;28;20036;-86
2022/10/27 20:02:54;;;;;;;10.20;3.53;;;16.20;99.90;;;;;;4900678;29;20126;-86
2022/10/27 20:05:24;;;;;;;13.35;3.80;;;15.80;99.90;;;;;;4905000;29;20123;-86
2022/10/27 20:07:50;;;;;;;15.40;4.45;;;15.90;99.90;;;;;;4905383;29;20059;-87
2022/10/27 20:10:18;;;;;;;10.77;4.45;;;15.80;99.90;;;;;;4904086;29;20058;-86
2022/10/27 20:12:43;;;;;;;11.60;4.60;;;15.80;99.90;;;;;;4887012;29;20059;-85
2022/10/27 20:15:34;;;;;;;12.23;4.82;;;15.90;99.90;;;;;;4903880;29;20379;-87
2022/10/27 20:18:00;;;;;;;15.40;4.22;;;15.80;99.90;;;;;;4904965;29;20110;-87
2022/10/27 20:20:26;;;;;;;12.45;4.28;;;15.90;99.90;;;;;;4902296;29;20458;-86
2022/10/27 20:22:51;;;;;;;22.25;5.13;;;15.90;99.90;;;;;;4920497;29;20103;-86
2022/10/27 20:25:17;;;;;;;16.10;4.93;;;15.90;99.90;;;;;;4882656;29;20106;-86
2022/10/27 20:27:44;;;;;;;13.65;4.80;;;16.00;99.90;;;;;;4886082;29;20051;-86
2022/10/27 20:30:25;;;;;;;9.48;4.75;;;15.80;99.90;;;;;;4898352;29;20106;-85
2022/10/27 20:33:45;;;;;;;13.20;4.97;;;15.80;99.90;;;;;;4902638;29;20059;-86
2022/10/27 20:36:14;;;;;;;12.63;5.85;;;15.70;99.90;;;;;;4886334;29;20174;-84
2022/10/27 20:38:41;;;;;;;14.10;5.07;;;15.70;99.90;;;;;;4905028;29;20056;-85
2022/10/27 20:41:17;;;;;;;8.48;4.30;;;15.70;99.90;;;;;;4907930;29;21562;-85
2022/10/27 20:43:43;;;;;;;16.83;5.82;;;15.60;99.90;;;;;;4910681;29;20062;-83
2022/10/27 20:46:09;;;;;;;13.73;5.10;;;15.60;99.90;;;;;;4895793;29;20051;-84
2022/10/27 20:48:36;;;;;;;13.23;6.05;;;15.60;99.90;;;;;;4919559;29;21611;-85
2022/10/27 20:51:09;;;;;;;11.57;4.88;;;15.60;99.90;;;;;;4902988;29;20050;-84
2022/10/27 20:53:35;;;;;;;13.68;5.43;;;15.50;99.90;;;;;;4893152;29;20075;-84
2022/10/27 20:56:01;;;;;;;11.98;5.07;;;15.50;99.90;;;;;;4888964;29;20040;-84
2022/10/27 20:58:28;;;;;;;10.43;4.82;;;15.60;99.90;;;;;;4886481;29;20111;-84
2022/10/27 21:00:53;;;;;;;14.65;5.53;;;15.50;99.90;;;;;;4914638;29;20043;-84
2022/10/27 21:03:21;;;;;;;25.35;4.75;;;15.50;99.90;;;;;;4898285;29;20047;-84
2022/10/27 21:05:47;;;;;;;12.63;5.38;;;15.50;99.90;;;;;;4911607;29;20487;-85
2022/10/27 21:08:12;;;;;;;9.60;4.80;;;15.50;99.90;;;;;;4913709;29;20059;-85
2022/10/27 21:10:41;;;;;;;12.55;4.65;;;15.50;99.90;;;;;;4912471;29;20102;-83
2022/10/27 21:13:11;;;;;;;14.45;5.43;;;15.70;99.90;;;;;;4913679;29;20039;-84
2022/10/27 21:15:38;;;;;;;18.80;4.30;;;15.50;99.90;;;;;;4915648;29;20563;-85
2022/10/27 21:18:05;;;;;;;24.30;5.18;;;15.50;99.90;;;;;;4916009;29;20051;-85
2022/10/27 21:20:31;;;;;;;25.08;5.43;;;15.50;99.90;;;;;;4897229;29;20391;-84
2022/10/27 21:22:57;;;;;;;25.67;5.22;;;15.40;99.90;;;;;;4900849;29;20059;-84
2022/10/27 21:25:22;;;;;;;16.23;5.80;;;15.40;99.90;;;;;;4900429;29;20042;-85
2022/10/27 21:27:57;;;;;;;19.52;5.30;;;15.30;99.90;;;;;;4912489;29;20051;-84
2022/10/27 21:30:26;;;;;;;21.98;5.78;;;15.30;99.90;;;;;;4916874;29;20135;-84
2022/10/27 21:32:53;;;;;;;24.17;5.40;;;15.20;99.90;;;;;;4912251;29;20127;-83
2022/10/27 21:35:20;;;;;;;14.30;6.53;;;15.20;99.90;;;;;;4915905;29;20067;-84
2022/10/27 21:37:46;;;;;;;13.13;5.40;;;15.20;99.90;;;;;;4897408;29;20538;-84
2022/10/27 21:40:12;;;;;;;13.57;6.60;;;15.30;99.90;;;;;;4900045;29;20049;-84
2022/10/27 21:42:38;;;;;;;48.30;6.22;;;15.20;99.90;;;;;;4931745;29;20047;-83
2022/10/27 21:45:06;;;;;;;55.58;6.75;;;15.20;99.90;;;;;;4897156;29;20490;-84
2022/10/27 21:47:32;;;;;;;16.40;5.85;;;15.10;99.90;;;;;;4909105;29;20764;-84
2022/10/27 21:49:57;;;;;;;13.50;5.70;;;15.20;99.90;;;;;;4907382;29;20095;-85
2022/10/27 21:52:23;;;;;;;10.43;6.07;;;15.30;99.90;;;;;;4895327;29;20511;-84
2022/10/27 21:54:49;;;;;;;17.88;5.78;;;15.30;99.90;;;;;;4908516;29;20562;-84
2022/10/27 21:57:14;;;;;;;9.63;6.65;;;15.30;99.90;;;;;;4907522;29;20086;-84
2022/10/27 21:59:40;;;;;;;13.07;6.55;;;15.30;99.90;;;;;;4907591;29;20039;-85
2022/10/27 22:02:05;;;;;;;11.13;5.53;;;15.20;99.90;;;;;;4907567;29;20154;-85
2022/10/27 22:04:31;;;;;;;13.20;6.40;;;15.30;99.90;;;;;;4908568;29;20040;-84
2022/10/27 22:06:56;;;;;;;15.98;6.65;;;15.30;99.90;;;;;;4903530;29;20044;-83
2022/10/27 22:09:22;;;;;;;10.07;6.15;;;15.30;99.90;;;;;;4905856;29;20051;-85
2022/10/27 22:11:47;;;;;;;16.70;6.68;;;15.20;99.90;;;;;;4905706;29;20058;-84
2022/10/27 22:14:13;;;;;;;13.35;6.18;;;15.30;99.90;;;;;;4908611;29;20050;-84
2022/10/27 22:16:38;;;;;;;12.65;6.20;;;15.30;99.90;;;;;;4907257;29;20075;-84
2022/10/27 22:19:05;;;;;;;12.45;6.28;;;15.30;99.90;;;;;;4910967;29;20700;-85
2022/10/27 22:21:34;;;;;;;55.97;6.72;;;15.30;99.90;;;;;;4908673;29;20055;-84
2022/10/27 22:24:00;;;;;;;36.42;6.03;;;15.20;99.90;;;;;;4907112;29;20047;-84
2022/10/27 22:26:26;;;;;;;58.35;7.10;;;15.20;99.90;;;;;;4906874;29;20046;-84
2022/10/27 22:28:52;;;;;;;32.50;5.90;;;15.10;99.90;;;;;;4928501;29;20043;-85
2022/10/27 22:31:21;;;;;;;30.90;5.63;;;15.00;99.90;;;;;;4890477;29;20036;-84
2022/10/27 22:33:48;;;;;;;19.27;6.25;;;15.00;99.90;;;;;;4911275;29;20364;-85
2022/10/27 22:36:16;;;;;;;25.08;5.38;;;14.90;99.90;;;;;;4903949;29;20039;-84
2022/10/27 22:38:42;;;;;;;11.43;5.55;;;14.90;99.90;;;;;;4903956;29;20074;-83
2022/10/27 22:41:11;;;;;;;25.75;6.20;;;14.90;99.90;;;;;;4903375;29;20032;-83
2022/10/27 22:43:37;;;;;;;14.98;6.15;;;14.90;99.90;;;;;;4904222;29;20095;-85
2022/10/27 22:46:04;;;;;;;14.75;6.72;;;14.90;99.90;;;;;;4904365;29;20609;-83
2022/10/27 22:48:31;;;;;;;16.08;7.28;;;14.80;99.90;;;;;;4904848;29;20043;-84
2022/10/27 22:51:09;;;;;;;11.82;6.70;;;14.80;99.90;;;;;;4908095;29;20050;-84
2022/10/27 22:53:37;;;;;;;16.50;7.50;;;14.90;99.90;;;;;;4907259;29;20369;-83
2022/10/27 22:56:04;;;;;;;11.70;6.68;;;15.00;99.90;;;;;;4894544;29;20039;-85
2022/10/27 22:58:30;;;;;;;18.98;7.70;;;15.00;99.90;;;;;;4904238;29;20044;-85
2022/10/27 23:01:05;;;;;;;11.25;6.90;;;15.00;99.90;;;;;;4902514;29;20664;-84
2022/10/27 23:03:31;;;;;;;14.52;6.85;;;15.10;99.90;;;;;;4906353;29;20051;-85
2022/10/27 23:05:56;;;;;;;10.88;6.10;;;15.20;99.90;;;;;;4892657;29;20046;-84
2022/10/27 23:08:22;;;;;;;12.90;5.88;;;15.20;99.90;;;;;;4897800;29;20075;-85
2022/10/27 23:10:58;;;;;;;13.95;6.43;;;15.20;99.90;;;;;;4906945;29;20134;-84
2022/10/27 23:13:26;;;;;;;13.68;6.97;;;15.30;99.90;;;;;;4906982;29;20410;-84
2022/10/27 23:16:02;;;;;;;14.05;6.40;;;15.30;99.90;;;;;;4909314;29;20733;-84
2022/10/27 23:18:32;;;;;;;11.73;6.22;;;15.30;99.90;;;;;;4908293;29;20048;-84
2022/10/27 23:20:59;;;;;;;24.75;6.03;;;15.20;99.90;;;;;;4906762;29;20047;-85
2022/10/27 23:23:26;;;;;;;14.63;6.85;;;15.20;99.90;;;;;;4910115;29;20041;-84
2022/10/27 23:25:52;;;;;;;15.18;5.00;;;15.10;99.90;;;;;;4889633;29;20871;-83
2022/10/27 23:28:18;;;;;;;18.80;6.50;;;15.30;99.90;;;;;;4892025;29;20438;-83
2022/10/27 23:30:44;;;;;;;16.77;6.53;;;15.00;99.90;;;;;;4906240;29;20044;-84
2022/10/27 23:33:10;;;;;;;25.30;6.25;;;14.90;99.90;;;;;;4894818;29;20768;-84
2022/10/27 23:35:35;;;;;;;18.98;5.82;;;14.90;99.90;;;;;;4904242;29;20098;-84
2022/10/27 23:38:01;;;;;;;11.30;5.45;;;14.80;99.90;;;;;;4888787;29;20036;-84
2022/10/27 23:40:26;;;;;;;17.75;5.70;;;14.80;99.90;;;;;;4906661;29;20047;-84
2022/10/27 23:42:53;;;;;;;13.80;6.03;;;14.70;99.90;;;;;;4922338;29;20135;-84
2022/10/27 23:45:19;;;;;;;11.88;4.85;;;14.60;99.90;;;;;;4903512;29;20047;-84
2022/10/27 23:47:44;;;;;;;23.33;5.95;;;14.60;99.90;;;;;;4891969;29;20062;-84
2022/10/27 23:50:10;;;;;;;11.07;5.00;;;14.50;99.90;;;;;;4908159;29;20042;-85
2022/10/27 23:52:35;;;;;;;11.23;5.13;;;14.40;99.90;;;;;;4907284;29;20048;-83
2022/10/27 23:55:01;;;;;;;18.85;4.75;;;14.30;99.90;;;;;;4906809;29;20459;-85
2022/10/27 23:57:26;;;;;;;39.13;5.22;;;14.30;99.90;;;;;;4908333;29;20574;-84
2022/10/27 23:59:52;;;;;;;13.35;5.25;;;14.20;99.90;;;;;;4894028;29;20041;-84
